Aurora, Oregon
Current Conditions -  °F | °C
As of 6:23 AM on Friday 31 Oct 2014 (Local Time) from KUAO Reporting Station
Moderate Rain Moderate Rain  
Wind Chill: 52°   Ceiling: 500
Heat Index: 52°   Visibility: 4mi
Dew Point: 51°   Wind: 7mph
Humidity: 97%   Direction: 340°NNW
Pressure: 29.73"   Gusts: NA
Location:  45.23°N, 122.76°W
Report Text: KUAO 311323Z AUTO 34006KT 4SM RA BR BKN005 OVC010 11/11 A2973 RMK AO2 P0010 T01110106
Loading
Personal Weather Stations






























Interactive Weather Map
Tropical Storm Tracking
New forecast layout! Learn more

10-Day Weather Forecast

Advertisements
Track Severe Weather on mobile